Time;durP1;ratioP1;P1;durP2;ratioP2;P2;SDS_P1;SDS_P2;PMS_P1;PMS_P2;Temp;Humidity;BMP_temperature;BMP_pressure;BME280_temperature;BME280_humidity;BME280_pressure;Samples;Min_cycle;Max_cycle;Signal;HPM_P1;HPM_P2
2023/10/12 00:01:01;;;;;;;8.68;0.98;;;;;;;15.47;100.00;100994.34;10488229;28;20060;-65
2023/10/12 00:06:06;;;;;;;5.35;1.30;;;;;;;15.24;100.00;101007.56;10490075;28;20051;-65
2023/10/12 00:11:07;;;;;;;8.65;1.15;;;;;;;15.15;100.00;101002.78;10465984;28;20052;-65
2023/10/12 00:16:09;;;;;;;10.93;1.48;;;;;;;15.02;100.00;101002.50;10483486;28;20114;-65
2023/10/12 00:21:15;;;;;;;12.57;1.90;;;;;;;14.94;100.00;100999.38;10476921;28;20047;-65
2023/10/12 00:26:17;;;;;;;13.75;1.63;;;;;;;14.90;100.00;101023.91;10495581;28;20044;-65
2023/10/12 00:31:19;;;;;;;14.90;1.95;;;;;;;14.81;100.00;101055.59;10484120;28;20039;-65
2023/10/12 00:36:24;;;;;;;16.13;1.70;;;;;;;14.70;100.00;101052.59;10508121;28;20048;-64
2023/10/12 00:41:27;;;;;;;8.82;2.00;;;;;;;14.65;100.00;101054.53;10498652;28;20044;-66
2023/10/12 00:51:31;;;;;;;12.57;1.77;;;;;;;14.67;100.00;101042.28;10482076;28;20037;-66
2023/10/12 00:56:36;;;;;;;14.98;1.73;;;;;;;14.65;100.00;101056.31;10478979;28;20055;-66
2023/10/12 01:01:37;;;;;;;10.32;2.00;;;;;;;14.61;100.00;101053.00;10510360;28;20049;-65
2023/10/12 01:06:40;;;;;;;17.83;1.80;;;;;;;14.53;100.00;101049.00;10485360;28;20052;-65
2023/10/12 01:11:43;;;;;;;11.73;1.90;;;;;;;14.52;100.00;101036.91;10486022;28;20044;-66
2023/10/12 01:22:00;;;;;;;9.45;1.73;;;;;;;14.40;100.00;101038.28;10480491;28;20218;-66
2023/10/12 01:27:03;;;;;;;12.18;1.88;;;;;;;14.43;100.00;101029.50;10484379;28;20053;-66
2023/10/12 01:37:28;;;;;;;11.88;2.10;;;;;;;14.21;100.00;101042.50;10483832;28;20048;-66
2023/10/12 01:42:49;;;;;;;11.95;2.08;;;;;;;14.25;100.00;101043.25;10485305;28;20028;-66
2023/10/12 01:47:56;;;;;;;7.97;1.98;;;;;;;14.32;100.00;101044.72;10476907;28;20055;-66
2023/10/12 01:52:58;;;;;;;17.73;2.30;;;;;;;14.35;100.00;101055.84;10484972;28;20068;-66
2023/10/12 01:58:04;;;;;;;13.75;1.80;;;;;;;14.36;100.00;101048.88;10491819;28;20417;-66
2023/10/12 02:03:26;;;;;;;15.82;2.15;;;;;;;14.39;100.00;101057.41;10478911;28;20505;-66
2023/10/12 02:08:32;;;;;;;14.68;1.95;;;;;;;14.32;100.00;101061.16;10483521;28;20056;-66
2023/10/12 02:13:35;;;;;;;17.90;2.20;;;;;;;14.31;100.00;101071.66;10479643;28;20043;-66
2023/10/12 02:18:36;;;;;;;16.67;2.30;;;;;;;14.26;100.00;101071.81;10481730;28;20075;-65
2023/10/12 02:23:53;;;;;;;10.23;1.80;;;;;;;14.29;100.00;101070.84;10485031;28;20040;-65
2023/10/12 02:29:35;;;;;;;11.82;2.17;;;;;;;14.25;100.00;101090.94;10471701;28;20153;-65
2023/10/12 02:34:29;;;;;;;12.13;1.58;;;;;;;14.22;100.00;101096.28;10481532;28;20059;-66
2023/10/12 02:39:37;;;;;;;11.20;1.60;;;;;;;14.23;100.00;101084.94;10487865;28;20059;-66
2023/10/12 02:44:50;;;;;;;11.65;1.65;;;;;;;14.26;100.00;101090.03;10474758;28;20091;-66
2023/10/12 02:50:28;;;;;;;11.95;1.80;;;;;;;14.24;100.00;101096.22;10488782;28;20041;-66
2023/10/12 03:00:32;;;;;;;12.85;1.83;;;;;;;14.25;100.00;101116.97;10485226;28;20377;-66
2023/10/12 03:05:46;;;;;;;12.43;1.90;;;;;;;14.19;100.00;101122.44;10485842;28;20049;-66
2023/10/12 03:16:15;;;;;;;16.10;2.08;;;;;;;14.10;100.00;101127.97;10487433;28;20068;-66
2023/10/12 03:21:17;;;;;;;11.27;1.77;;;;;;;14.11;100.00;101124.50;10484654;28;20048;-66
2023/10/12 03:26:25;;;;;;;11.65;2.03;;;;;;;14.15;100.00;101136.47;10489166;28;20048;-66
2023/10/12 03:31:35;;;;;;;15.80;2.00;;;;;;;14.12;100.00;101136.59;10484525;28;20443;-65
2023/10/12 03:36:37;;;;;;;10.38;1.85;;;;;;;14.13;100.00;101133.09;10482510;28;20052;-65
2023/10/12 03:47:14;;;;;;;;;;;;;;;14.13;100.00;101146.09;10490631;28;20049;-66
2023/10/12 03:52:18;;;;;;;15.13;2.40;;;;;;;14.13;100.00;101139.16;10485598;28;19951;-66
2023/10/12 03:57:19;;;;;;;15.52;2.25;;;;;;;14.08;100.00;101148.03;10497968;28;20705;-66
2023/10/12 04:02:21;;;;;;;13.25;2.45;;;;;;;14.07;100.00;101146.34;10484005;28;20036;-66
2023/10/12 04:07:37;;;;;;;16.45;2.17;;;;;;;14.02;100.00;101138.72;10488599;28;20045;-66
2023/10/12 04:12:52;;;;;;;22.23;2.60;;;;;;;14.00;100.00;101157.88;10484666;28;20047;-66
2023/10/12 04:17:59;;;;;;;12.43;2.30;;;;;;;13.96;100.00;101166.72;10482872;28;20044;-65
2023/10/12 04:23:13;;;;;;;18.40;3.13;;;;;;;13.93;100.00;101172.91;10484520;28;20520;-65
2023/10/12 04:28:32;;;;;;;17.70;3.42;;;;;;;13.95;100.00;101186.69;10493469;28;20057;-65
2023/10/12 04:33:43;;;;;;;14.32;3.33;;;;;;;13.93;100.00;101188.53;10485154;28;20041;-65
2023/10/12 04:38:46;;;;;;;15.65;3.17;;;;;;;13.96;100.00;101203.16;10479680;28;20064;-65
2023/10/12 04:44:03;;;;;;;20.70;4.35;;;;;;;13.97;100.00;101205.69;10482403;28;20105;-65
2023/10/12 04:54:25;;;;;;;16.95;4.03;;;;;;;13.90;100.00;101204.22;10473821;28;20046;-65
2023/10/12 04:59:42;;;;;;;17.83;4.43;;;;;;;13.93;100.00;101200.66;10485006;28;20044;-65
2023/10/12 05:09:49;;;;;;;14.05;4.22;;;;;;;13.89;100.00;101206.88;10483832;28;20079;-65
2023/10/12 05:14:55;;;;;;;19.90;4.10;;;;;;;13.92;100.00;101210.22;10476459;28;20041;-66
2023/10/12 05:19:56;;;;;;;14.97;4.00;;;;;;;13.90;100.00;101218.97;10488702;28;20828;-65
2023/10/12 05:24:58;;;;;;;13.32;3.78;;;;;;;13.88;100.00;101226.03;10486996;28;20475;-66
2023/10/12 05:30:05;;;;;;;13.77;3.60;;;;;;;13.83;100.00;101238.31;10470873;28;20052;-66
2023/10/12 05:35:15;;;;;;;21.05;4.07;;;;;;;13.74;100.00;101249.06;10473673;28;20044;-66
2023/10/12 05:40:17;;;;;;;19.73;4.22;;;;;;;13.75;100.00;101245.56;10477157;28;20492;-66
2023/10/12 05:45:22;;;;;;;13.75;3.25;;;;;;;13.72;100.00;101251.72;10480376;28;20528;-66
2023/10/12 05:50:24;;;;;;;18.92;3.38;;;;;;;13.74;100.00;101264.66;10472278;28;20043;-65
2023/10/12 05:55:27;;;;;;;16.42;3.67;;;;;;;13.69;100.00;101264.00;10482448;28;20131;-66
2023/10/12 06:00:35;;;;;;;14.73;3.45;;;;;;;13.71;100.00;101281.25;10485967;28;20106;-65
2023/10/12 06:05:38;;;;;;;16.77;3.72;;;;;;;13.70;100.00;101270.88;10482848;28;20056;-65
2023/10/12 06:10:41;;;;;;;16.42;3.38;;;;;;;13.69;100.00;101282.19;10480694;28;20044;-65
2023/10/12 06:15:49;;;;;;;14.57;3.65;;;;;;;13.67;100.00;101284.00;10480525;28;20144;-66
2023/10/12 06:21:06;;;;;;;19.38;3.67;;;;;;;13.62;100.00;101293.72;10481949;28;20045;-65
2023/10/12 06:26:15;;;;;;;16.00;3.50;;;;;;;13.63;100.00;101295.41;10479086;28;20066;-65
2023/10/12 06:31:21;;;;;;;17.08;3.50;;;;;;;13.66;100.00;101290.13;10474108;28;20045;-65
2023/10/12 06:36:38;;;;;;;18.60;3.65;;;;;;;13.65;100.00;101285.81;10480908;28;20090;-65
2023/10/12 06:46:46;;;;;;;19.20;3.63;;;;;;;13.61;100.00;101285.06;10485036;28;20507;-65
2023/10/12 06:51:53;;;;;;;20.15;3.30;;;;;;;13.59;100.00;101291.22;10480216;28;20045;-65
2023/10/12 06:57:12;;;;;;;19.20;3.67;;;;;;;13.60;100.00;101298.13;10491935;28;20052;-66
2023/10/12 07:02:20;;;;;;;19.33;3.65;;;;;;;13.58;100.00;101299.94;10488589;28;20050;-66
2023/10/12 07:07:43;;;;;;;19.88;3.72;;;;;;;13.58;100.00;101299.94;10486236;28;20056;-65
2023/10/12 07:12:48;;;;;;;20.38;3.72;;;;;;;13.55;100.00;101321.69;10492201;28;20440;-65
2023/10/12 07:17:51;;;;;;;14.40;4.30;;;;;;;13.53;100.00;101323.50;10485221;28;20813;-65
2023/10/12 07:22:53;;;;;;;13.20;3.75;;;;;;;13.55;100.00;101333.84;10483096;28;20463;-65
2023/10/12 07:28:00;;;;;;;15.35;3.95;;;;;;;13.52;100.00;101340.00;10500219;28;20053;-65
2023/10/12 07:33:05;;;;;;;16.35;3.63;;;;;;;13.51;100.00;101351.31;10486572;28;20095;-65
2023/10/12 07:38:27;;;;;;;14.23;3.85;;;;;;;13.52;100.00;101372.94;10476576;28;20140;-65
2023/10/12 07:43:38;;;;;;;13.85;3.42;;;;;;;13.53;100.00;101374.66;10489213;28;20052;-65
2023/10/12 07:48:44;;;;;;;20.25;3.63;;;;;;;13.56;100.00;101384.94;10505125;28;20045;-66
2023/10/12 07:53:51;;;;;;;15.00;3.80;;;;;;;13.59;100.00;101383.09;10503081;28;20580;-66
2023/10/12 07:58:58;;;;;;;11.15;3.17;;;;;;;13.68;100.00;101379.34;10482077;28;20051;-65
2023/10/12 08:03:59;;;;;;;13.93;3.50;;;;;;;13.74;100.00;101381.72;10488388;28;20059;-64
2023/10/12 08:09:21;;;;;;;18.17;3.58;;;;;;;13.79;100.00;101377.22;10487706;28;20390;-65
2023/10/12 08:19:28;;;;;;;11.95;2.92;;;;;;;13.88;100.00;101398.56;10493801;28;20045;-65
2023/10/12 08:24:36;;;;;;;13.00;2.97;;;;;;;13.91;100.00;101403.69;10488367;28;20090;-65
2023/10/12 08:45:15;;;;;;;12.55;2.22;;;;;;;14.06;100.00;101420.50;10466812;28;20052;-65
2023/10/12 08:55:24;;;;;;;11.25;2.47;;;;;;;14.20;100.00;101430.41;10494266;28;20127;-65
2023/10/12 09:05:39;;;;;;;15.25;1.85;;;;;;;14.26;98.66;101440.63;10484056;28;20049;-65
2023/10/12 09:16:09;;;;;;;16.58;2.13;;;;;;;14.32;100.00;101450.88;10482883;28;20055;-65
2023/10/12 09:21:24;;;;;;;13.10;1.88;;;;;;;14.39;100.00;101441.94;10481755;28;20048;-65
2023/10/12 09:26:35;;;;;;;18.70;2.38;;;;;;;14.45;98.37;101452.13;10479081;28;20053;-65
2023/10/12 09:36:53;;;;;;;12.90;1.77;;;;;;;14.60;100.00;101457.63;10477447;28;20080;-64
2023/10/12 09:41:59;;;;;;;12.27;2.05;;;;;;;14.74;100.00;101455.34;10485489;28;20457;-65
2023/10/12 09:47:09;;;;;;;13.88;2.10;;;;;;;14.81;100.00;101446.44;10484154;28;20399;-65
2023/10/12 09:52:13;;;;;;;9.98;1.70;;;;;;;14.88;100.00;101445.28;10481556;28;20135;-65
2023/10/12 09:57:19;;;;;;;11.63;1.80;;;;;;;14.95;99.84;101453.69;10481208;28;20154;-65
2023/10/12 10:02:28;;;;;;;15.02;2.08;;;;;;;14.98;92.70;101454.44;10486177;28;20048;-65
2023/10/12 10:07:36;;;;;;;10.75;1.63;;;;;;;15.03;95.78;101447.28;10482329;28;20461;-65
2023/10/12 10:12:42;;;;;;;12.70;1.48;;;;;;;15.06;90.97;101455.00;10483041;28;20122;-65
2023/10/12 10:17:52;;;;;;;17.42;1.92;;;;;;;15.10;90.45;101453.13;10483663;28;20072;-65
2023/10/12 10:23:01;;;;;;;13.45;1.77;;;;;;;15.13;93.64;101457.38;10479682;28;20481;-65
2023/10/12 10:28:10;;;;;;;16.20;2.08;;;;;;;15.10;93.75;101464.41;10474430;28;20168;-65
2023/10/12 10:33:14;;;;;;;13.77;1.67;;;;;;;15.07;88.04;101467.13;10481887;28;20075;-65
2023/10/12 10:38:17;;;;;;;9.43;1.80;;;;;;;15.11;95.96;101466.09;10481459;28;20044;-65
2023/10/12 10:43:19;;;;;;;11.95;1.85;;;;;;;15.19;91.09;101468.41;10477814;28;20045;-65
2023/10/12 10:48:21;;;;;;;12.43;1.90;;;;;;;15.24;90.13;101473.44;10512017;28;20061;-64
2023/10/12 10:53:46;;;;;;;14.73;2.45;;;;;;;15.27;92.50;101470.72;10481145;28;20048;-65
2023/10/12 10:58:50;;;;;;;15.57;1.75;;;;;;;15.39;95.24;101476.31;10481737;28;20520;-65
2023/10/12 11:03:53;;;;;;;12.82;1.73;;;;;;;15.37;87.00;101478.13;10479962;28;20059;-65
2023/10/12 11:09:08;;;;;;;12.57;1.55;;;;;;;15.62;87.13;101484.09;10480289;28;20501;-65
2023/10/12 11:14:12;;;;;;;16.42;1.85;;;;;;;15.58;88.35;101466.03;10483398;28;20024;-65
2023/10/12 11:19:23;;;;;;;19.77;1.85;;;;;;;15.52;85.95;101471.47;10486752;28;20123;-65
2023/10/12 11:24:26;;;;;;;11.45;1.45;;;;;;;15.53;82.86;101462.75;10485168;28;20081;-65
2023/10/12 11:29:50;;;;;;;8.90;1.60;;;;;;;15.55;85.57;101458.31;10484443;28;20040;-65
2023/10/12 11:34:59;;;;;;;10.05;1.83;;;;;;;15.46;89.27;101461.28;10491153;28;20123;-65
2023/10/12 11:40:06;;;;;;;16.13;2.15;;;;;;;15.54;88.85;101457.47;10472432;28;20054;-65
2023/10/12 11:45:09;;;;;;;14.85;1.83;;;;;;;15.65;86.01;101468.34;10488281;28;20074;-65
2023/10/12 11:50:13;;;;;;;11.23;1.80;;;;;;;15.75;84.49;101463.56;10464450;28;20279;-66
2023/10/12 11:55:19;;;;;;;10.80;1.63;;;;;;;15.81;82.11;101463.31;10487526;28;20040;-67
2023/10/12 12:00:21;;;;;;;10.30;1.80;;;;;;;15.79;82.73;101467.75;10492518;28;20142;-66
2023/10/12 12:05:25;;;;;;;13.73;1.77;;;;;;;15.72;82.73;101453.25;10484775;28;20679;-66
2023/10/12 12:11:13;;;;;;;11.15;1.75;;;;;;;15.67;85.45;101457.81;10488419;28;20049;-66
2023/10/12 12:15:55;;;;;;;15.52;1.98;;;;;;;15.64;84.18;101455.34;10470174;28;20055;-66
2023/10/12 12:20:57;;;;;;;14.60;1.70;;;;;;;15.66;83.99;101453.50;10484286;28;20101;-66
2023/10/12 12:26:09;;;;;;;9.30;1.40;;;;;;;15.66;85.11;101453.50;10476795;28;20045;-66
2023/10/12 12:31:15;;;;;;;15.68;1.85;;;;;;;15.53;86.01;101442.72;10480263;28;20055;-66
2023/10/12 12:36:22;;;;;;;11.07;1.55;;;;;;;15.48;86.56;101439.47;10481218;28;20044;-66
2023/10/12 12:41:24;;;;;;;8.95;1.70;;;;;;;15.48;86.58;101439.47;10490613;28;20071;-65
2023/10/12 12:46:29;;;;;;;7.70;1.42;;;;;;;15.58;87.28;101435.56;10484256;28;20044;-65
2023/10/12 12:51:31;;;;;;;15.33;1.77;;;;;;;15.64;87.67;101440.53;10482926;28;20049;-65
2023/10/12 12:56:35;;;;;;;6.28;1.50;;;;;;;15.69;87.51;101429.91;10480880;28;20265;-65
2023/10/12 13:01:41;;;;;;;14.13;1.67;;;;;;;15.72;84.66;101416.72;10491086;28;20036;-65
2023/10/12 13:06:43;;;;;;;10.43;1.55;;;;;;;15.72;85.57;101419.34;10476353;28;20041;-65
2023/10/12 13:11:47;;;;;;;11.82;1.98;;;;;;;15.78;84.11;101426.91;10483428;28;20102;-66
2023/10/12 13:16:49;;;;;;;12.43;1.52;;;;;;;15.70;87.32;101414.19;10484004;28;20373;-66
2023/10/12 13:21:51;;;;;;;8.52;1.50;;;;;;;15.65;84.60;101415.28;10479628;28;20047;-66
2023/10/12 13:26:52;;;;;;;13.52;1.90;;;;;;;15.58;86.41;101414.72;10472966;28;20549;-65
2023/10/12 13:31:54;;;;;;;7.18;1.35;;;;;;;15.60;84.85;101417.25;10486264;28;20052;-65
2023/10/12 13:36:56;;;;;;;9.73;1.17;;;;;;;15.65;79.34;101417.91;10480787;28;20097;-65
2023/10/12 13:41:58;;;;;;;6.85;1.40;;;;;;;15.68;84.86;101409.94;10485445;28;20036;-65
2023/10/12 13:46:59;;;;;;;12.88;1.90;;;;;;;15.65;85.41;101403.09;10475388;28;20056;-65
2023/10/12 13:52:09;;;;;;;11.60;1.77;;;;;;;15.63;86.18;101409.28;10459671;28;20041;-65
2023/10/12 13:57:14;;;;;;;15.60;1.63;;;;;;;15.76;84.73;101413.09;10476502;28;20044;-66
2023/10/12 14:02:16;;;;;;;9.32;1.45;;;;;;;15.85;82.51;101404.88;10478951;28;20045;-66
2023/10/12 14:07:17;;;;;;;13.30;1.75;;;;;;;15.81;85.46;101400.69;10484191;28;20057;-66
2023/10/12 14:12:19;;;;;;;13.48;2.00;;;;;;;15.76;87.25;101393.06;10481764;28;20507;-65
2023/10/12 14:17:24;;;;;;;11.27;1.50;;;;;;;15.78;86.23;101403.44;10485367;28;20048;-65
2023/10/12 14:22:26;;;;;;;12.43;1.65;;;;;;;15.77;87.76;101393.88;10474902;28;20084;-64
2023/10/12 14:27:28;;;;;;;16.15;1.80;;;;;;;15.75;86.42;101398.31;10491111;28;20068;-65
2023/10/12 14:32:30;;;;;;;8.48;1.52;;;;;;;15.80;85.28;101388.56;10502695;28;20044;-65
2023/10/12 14:37:36;;;;;;;11.50;1.73;;;;;;;15.76;89.00;101381.75;10467969;28;20052;-65
2023/10/12 14:42:41;;;;;;;9.00;1.33;;;;;;;15.74;87.65;101383.59;10465808;28;20036;-64
2023/10/12 14:47:44;;;;;;;13.70;2.15;;;;;;;15.82;85.09;101391.94;10464774;28;20053;-65
2023/10/12 14:52:46;;;;;;;8.63;1.70;;;;;;;15.81;84.19;101375.44;10476825;28;20511;-65
2023/10/12 14:57:50;;;;;;;10.77;1.90;;;;;;;15.88;86.36;101383.84;10486889;28;20161;-66
2023/10/12 15:02:53;;;;;;;9.55;1.75;;;;;;;15.89;86.31;101369.88;10473007;28;20143;-66
2023/10/12 15:07:55;;;;;;;8.27;1.80;;;;;;;15.89;85.69;101380.34;10481676;28;20074;-66
2023/10/12 15:12:58;;;;;;;9.38;1.70;;;;;;;15.88;85.90;101376.00;10479258;28;20123;-66
2023/10/12 15:18:03;;;;;;;10.32;2.03;;;;;;;15.86;87.49;101363.03;10476116;28;20090;-66
2023/10/12 15:23:08;;;;;;;8.35;1.67;;;;;;;15.82;86.29;101350.19;10477713;28;20055;-66
2023/10/12 15:28:11;;;;;;;16.75;2.30;;;;;;;15.83;86.53;101341.44;10478559;28;20049;-66
2023/10/12 15:33:13;;;;;;;13.65;2.00;;;;;;;15.80;85.40;101333.75;10479708;28;20134;-66
2023/10/12 15:38:15;;;;;;;9.38;1.75;;;;;;;15.76;85.12;101350.44;10474120;28;20056;-66
2023/10/12 15:43:16;;;;;;;17.17;2.35;;;;;;;15.68;85.53;101347.31;10479070;28;20044;-66
2023/10/12 15:48:20;;;;;;;12.25;2.50;;;;;;;15.58;83.90;101357.31;10482422;28;20072;-66
2023/10/12 15:53:24;;;;;;;8.10;2.03;;;;;;;15.55;84.08;101356.56;10455162;28;20061;-66
2023/10/12 15:58:27;;;;;;;12.18;2.25;;;;;;;15.50;85.15;101354.16;10468653;28;20484;-66
2023/10/12 16:03:29;;;;;;;8.27;2.03;;;;;;;15.50;86.30;101367.19;10467967;28;20040;-66
2023/10/12 16:08:31;;;;;;;7.38;2.55;;;;;;;15.38;85.93;101359.00;10476379;28;20041;-66
2023/10/12 16:13:36;;;;;;;18.20;2.78;;;;;;;15.32;86.81;101361.84;10476323;28;20045;-66
2023/10/12 16:18:41;;;;;;;14.10;2.75;;;;;;;15.22;88.28;101357.94;10472896;28;20048;-66
2023/10/12 16:23:43;;;;;;;11.57;2.80;;;;;;;15.01;89.54;101355.28;10462753;28;20053;-66
2023/10/12 16:28:46;;;;;;;11.95;2.83;;;;;;;14.87;90.72;101351.53;10450662;28;20059;-66
2023/10/12 16:33:48;;;;;;;15.50;3.20;;;;;;;14.81;92.17;101355.22;10460871;28;20044;-66
2023/10/12 16:38:50;;;;;;;13.85;3.25;;;;;;;14.76;93.13;101357.13;10473154;28;20191;-65
2023/10/12 16:43:55;;;;;;;11.27;2.97;;;;;;;14.67;93.88;101365.31;10472027;28;20040;-63
2023/10/12 16:48:57;;;;;;;8.43;2.63;;;;;;;14.59;95.65;101367.38;10462975;28;20512;-64
2023/10/12 16:54:03;;;;;;;14.85;3.22;;;;;;;14.51;96.57;101358.13;10466351;28;20059;-64
2023/10/12 16:59:07;;;;;;;10.88;3.42;;;;;;;14.46;96.97;101353.13;10470571;28;20098;-64
2023/10/12 17:04:18;;;;;;;17.33;3.40;;;;;;;14.41;97.83;101351.59;10473939;28;20052;-65
2023/10/12 17:09:22;;;;;;;12.27;3.35;;;;;;;14.37;98.44;101345.66;10457454;28;20060;-65
2023/10/12 17:14:24;;;;;;;13.23;3.33;;;;;;;14.36;99.87;101343.06;10471659;28;20044;-65
2023/10/12 17:19:25;;;;;;;9.80;3.05;;;;;;;14.33;99.77;101344.06;10480921;28;20040;-65
2023/10/12 17:24:30;;;;;;;15.07;3.67;;;;;;;14.32;100.00;101344.94;10475717;28;20138;-65
2023/10/12 17:29:34;;;;;;;14.07;3.53;;;;;;;14.29;100.00;101341.59;10476998;28;20054;-65
2023/10/12 17:34:37;;;;;;;16.15;4.55;;;;;;;14.28;100.00;101343.38;10479174;28;20055;-65
2023/10/12 17:39:39;;;;;;;13.00;3.92;;;;;;;14.24;100.00;101339.16;10464618;28;20045;-65
2023/10/12 17:44:42;;;;;;;9.55;3.72;;;;;;;14.15;100.00;101326.47;10474403;28;20504;-65
2023/10/12 17:49:44;;;;;;;9.40;4.03;;;;;;;14.18;100.00;101341.13;10465784;28;20047;-65
2023/10/12 17:54:46;;;;;;;16.33;3.75;;;;;;;14.18;100.00;101343.72;10476564;28;20079;-65
2023/10/12 17:59:47;;;;;;;14.32;3.92;;;;;;;14.20;100.00;101342.78;10476070;28;20041;-65
2023/10/12 18:04:49;;;;;;;13.40;3.97;;;;;;;14.22;100.00;101358.34;10475763;28;20155;-64
2023/10/12 18:09:51;;;;;;;10.40;3.80;;;;;;;14.25;100.00;101353.03;10474846;28;20110;-65
2023/10/12 18:14:52;;;;;;;9.73;3.67;;;;;;;14.22;100.00;101353.97;10473510;28;20211;-65
2023/10/12 18:19:54;;;;;;;9.50;3.15;;;;;;;14.16;100.00;101346.38;10472196;28;20048;-65
2023/10/12 18:24:56;;;;;;;11.70;3.08;;;;;;;14.18;100.00;101355.00;10480674;28;20051;-65
2023/10/12 18:29:58;;;;;;;10.43;3.30;;;;;;;14.15;100.00;101360.31;10477303;28;20052;-65
2023/10/12 18:35:03;;;;;;;9.57;3.20;;;;;;;14.12;100.00;101360.41;10505472;28;20139;-65
2023/10/12 18:40:12;;;;;;;10.43;2.85;;;;;;;14.13;100.00;101373.41;10473026;28;20122;-65
2023/10/12 18:45:15;;;;;;;11.15;2.65;;;;;;;14.13;100.00;101352.56;10478683;28;20051;-65
2023/10/12 18:50:17;;;;;;;7.70;3.05;;;;;;;14.15;100.00;101355.13;10493365;28;20163;-65
2023/10/12 18:55:20;;;;;;;10.45;3.08;;;;;;;14.11;100.00;101348.31;10483366;28;20048;-65
2023/10/12 19:00:22;;;;;;;12.40;3.53;;;;;;;14.10;100.00;101346.59;10499517;28;20045;-64
2023/10/12 19:05:24;;;;;;;11.80;3.53;;;;;;;14.13;100.00;101346.50;10481567;28;20059;-63
2023/10/12 19:10:25;;;;;;;12.50;4.15;;;;;;;14.16;100.00;101359.41;10470741;28;20130;-63
2023/10/12 19:15:30;;;;;;;8.25;3.60;;;;;;;14.17;100.00;101340.28;10480102;28;20909;-63
2023/10/12 19:20:32;;;;;;;10.77;3.30;;;;;;;14.22;100.00;101330.56;10481130;28;20068;-63
2023/10/12 19:25:34;;;;;;;7.32;2.67;;;;;;;14.20;100.00;101342.78;10483140;28;20089;-63
2023/10/12 19:30:39;;;;;;;11.27;3.00;;;;;;;14.23;100.00;101321.00;10471762;28;20136;-63
2023/10/12 19:35:42;;;;;;;9.05;2.60;;;;;;;14.20;100.00;101334.97;10483718;28;20381;-63
2023/10/12 19:40:44;;;;;;;14.38;2.53;;;;;;;14.12;100.00;101329.19;10476490;28;20052;-63
2023/10/12 19:45:46;;;;;;;14.27;2.92;;;;;;;14.13;100.00;101315.28;10450456;28;20080;-64
2023/10/12 19:50:49;;;;;;;6.35;2.60;;;;;;;14.12;100.00;101323.97;10461144;28;20089;-64
2023/10/12 19:55:52;;;;;;;6.78;2.50;;;;;;;14.13;100.00;101304.88;10473447;28;20191;-63
2023/10/12 20:00:55;;;;;;;12.50;2.70;;;;;;;14.14;100.00;101301.34;10469047;28;20056;-63
2023/10/12 20:06:04;;;;;;;10.13;2.58;;;;;;;14.11;100.00;101312.72;10469567;28;20110;-63
2023/10/12 20:11:06;;;;;;;8.57;2.90;;;;;;;14.11;100.00;101311.88;10473681;28;20045;-63
2023/10/12 20:16:11;;;;;;;8.48;2.78;;;;;;;14.11;100.00;101301.47;10466341;28;20508;-63
2023/10/12 20:21:19;;;;;;;15.53;3.30;;;;;;;14.15;100.00;101290.88;10469203;28;20382;-62
2023/10/12 20:26:23;;;;;;;9.27;2.72;;;;;;;14.13;100.00;101284.91;10472587;28;20096;-63
2023/10/12 20:31:25;;;;;;;8.60;3.15;;;;;;;14.14;100.00;101285.72;10458023;28;20114;-63
2023/10/12 20:36:28;;;;;;;12.70;3.95;;;;;;;14.14;100.00;101270.97;10473079;28;20068;-63
2023/10/12 20:41:31;;;;;;;17.10;4.10;;;;;;;14.14;100.00;101275.31;10477347;28;20048;-63
2023/10/12 20:46:34;;;;;;;13.65;3.65;;;;;;;14.12;100.00;101277.13;10464960;28;20144;-63
2023/10/12 20:51:37;;;;;;;11.00;3.72;;;;;;;14.10;100.00;101260.72;10479528;28;20050;-63
2023/10/12 20:56:40;;;;;;;17.40;4.10;;;;;;;14.13;100.00;101263.22;10469298;28;20048;-63
2023/10/12 21:01:56;;;;;;;14.48;4.22;;;;;;;14.14;100.00;101259.69;10470474;28;20075;-63
2023/10/12 21:06:58;;;;;;;13.52;4.80;;;;;;;14.17;100.00;101249.19;10474649;28;20053;-63
2023/10/12 21:12:13;;;;;;;14.55;4.43;;;;;;;14.17;100.00;101243.97;10475645;28;20061;-63
2023/10/12 21:17:33;;;;;;;15.90;4.72;;;;;;;14.21;100.00;101240.34;10470123;28;20546;-63
2023/10/12 21:22:35;;;;;;;20.13;4.97;;;;;;;14.22;100.00;101231.63;10474980;28;20092;-63
2023/10/12 21:27:37;;;;;;;13.13;5.03;;;;;;;14.23;100.00;101227.28;10479386;28;20049;-63
2023/10/12 21:32:39;;;;;;;14.00;4.97;;;;;;;14.23;100.00;101225.50;10468371;28;20118;-63
2023/10/12 21:37:46;;;;;;;11.32;5.32;;;;;;;14.22;100.00;101208.22;10471252;28;20102;-62
2023/10/12 21:42:48;;;;;;;16.23;6.35;;;;;;;14.18;100.00;101200.56;10470251;28;20510;-62
2023/10/12 21:47:52;;;;;;;12.15;6.63;;;;;;;14.22;100.00;101204.75;10472760;28;20792;-62
2023/10/12 21:52:56;;;;;;;;;;;;;;;14.25;100.00;101192.47;10456578;28;20722;-62
2023/10/12 21:57:57;;;;;;;22.20;8.57;;;;;;;14.27;100.00;101188.06;10470190;28;19927;-62
2023/10/12 22:02:59;;;;;;;20.20;10.00;;;;;;;14.26;100.00;101178.56;10479590;28;20056;-62
2023/10/12 22:08:02;;;;;;;18.88;10.27;;;;;;;14.31;100.00;101171.44;10486959;28;20044;-62
2023/10/12 22:13:10;;;;;;;22.48;12.15;;;;;;;14.33;100.00;101167.00;10472239;28;20053;-62
2023/10/12 22:18:13;;;;;;;25.02;12.73;;;;;;;14.36;100.00;101163.41;10476655;28;20080;-62
2023/10/12 22:23:14;;;;;;;24.58;12.80;;;;;;;14.39;100.00;101155.50;10478894;28;20524;-63
2023/10/12 22:28:18;;;;;;;31.70;14.30;;;;;;;14.40;100.00;101152.84;10468345;28;20048;-62
2023/10/12 22:33:20;;;;;;;28.02;14.00;;;;;;;14.45;100.00;101140.47;10469816;28;20549;-62
2023/10/12 22:38:22;;;;;;;28.33;14.80;;;;;;;14.47;100.00;101133.44;10473077;28;20084;-62
2023/10/12 22:43:23;;;;;;;27.40;15.52;;;;;;;14.51;100.00;101129.81;10478313;28;20397;-62
2023/10/12 22:48:25;;;;;;;26.55;15.95;;;;;;;14.53;100.00;101130.59;10467711;28;20047;-63
2023/10/12 22:53:29;;;;;;;30.67;16.30;;;;;;;14.58;100.00;101125.19;10471833;28;20810;-62
2023/10/12 22:58:30;;;;;;;29.90;16.02;;;;;;;14.64;100.00;101124.94;10455145;28;20066;-63
2023/10/12 23:03:32;;;;;;;29.75;17.30;;;;;;;14.67;100.00;101116.97;10473438;28;20052;-63
2023/10/12 23:08:35;;;;;;;31.08;17.10;;;;;;;14.69;100.00;101102.13;10471071;28;20398;-63
2023/10/12 23:13:39;;;;;;;33.70;18.27;;;;;;;14.76;100.00;101099.22;10470771;28;20057;-63
2023/10/12 23:18:40;;;;;;;30.10;18.17;;;;;;;14.79;100.00;101104.31;10476334;28;20063;-63
2023/10/12 23:23:42;;;;;;;35.83;18.83;;;;;;;14.84;100.00;101091.91;10486514;28;20051;-63
2023/10/12 23:28:47;;;;;;;35.13;20.23;;;;;;;14.88;100.00;101101.31;10469200;28;20051;-63
2023/10/12 23:33:53;;;;;;;44.92;21.13;;;;;;;14.91;100.00;101106.38;10474390;28;20227;-63
2023/10/12 23:39:01;;;;;;;40.53;19.42;;;;;;;14.96;100.00;101106.19;10475703;28;20047;-62
2023/10/12 23:44:19;;;;;;;36.65;20.85;;;;;;;15.00;100.00;101098.16;10472274;28;20048;-62
2023/10/12 23:49:29;;;;;;;35.88;20.25;;;;;;;15.04;100.00;101094.50;10481786;28;20681;-63
2023/10/12 23:54:33;;;;;;;42.65;21.52;;;;;;;15.09;100.00;101081.25;10477268;28;20041;-63
2023/10/12 23:59:35;;;;;;;40.17;22.38;;;;;;;15.13;100.00;101078.44;10474691;28;20060;-63
